Date,TemperatureHighF,TemperatureAvgF,TemperatureLowF,DewpointHighF,DewpointAvgF,DewpointLowF,HumidityHigh,HumidityAvg,HumidityLow,PressureMaxIn,PressureMinIn,WindSpeedMaxMPH,WindSpeedAvgMPH,GustSpeedMaxMPH,PrecipitationSumIn
2013-5-1,72,52,33,40,35,26,96,59,19,30.45,30.37,10,1,0,0.00
2013-5-2,80,62,48,45,40,34,72,48,21,30.38,30.20,11,1,0,0.00
2013-5-3,81,62,43,51,45,39,95,59,25,30.25,30.07,12,1,0,0.00
2013-5-4,81,68,52,51,40,33,69,39,18,30.07,29.80,14,2,0,0.00
2013-5-5,85,71,52,49,41,34,80,37,22,29.81,29.61,13,2,0,0.00
2013-5-6,72,58,48,55,49,45,93,74,51,29.93,29.78,8,1,0,0.00
2013-5-7,70,59,50,56,50,47,89,75,58,30.04,29.93,12,2,0,0.00
2013-5-8,59,51,49,51,47,46,89,86,73,30.11,30.04,2,0,0,0.00
2013-5-17,46,45,45,44,44,43,93,92,92,30.10,30.09,0,0,0,0.04
2013-5-18,57,51,45,53,49,43,97,93,85,30.27,30.09,6,0,0,0.13
2013-5-19,65,55,47,52,49,44,100,81,61,30.39,30.28,8,1,0,0.01
2013-5-20,70,55,43,54,47,41,97,77,44,30.32,29.94,7,1,0,0.00
2013-5-21,48,45,40,46,43,39,96,93,86,30.02,29.85,11,1,0,1.14
2013-5-22,51,44,40,49,43,39,98,95,91,30.01,29.96,5,0,0,0.94
2013-5-23,54,48,44,50,46,43,98,95,83,30.02,29.99,5,0,0,0.44
2013-5-24,53,48,45,50,47,44,96,95,89,30.09,29.99,6,0,0,0.14
2013-5-25,65,54,45,54,48,45,98,84,61,30.08,29.93,7,1,0,0.12
2013-5-26,57,52,50,53,50,48,97,91,83,30.05,29.93,8,1,0,0.04
2013-5-27,60,53,50,58,52,48,98,95,87,29.96,29.74,2,0,0,0.71
2013-5-28,59,53,49,54,50,48,98,91,72,29.95,29.72,6,0,0,0.40
2013-5-29,56,51,46,53,50,46,97,94,88,30.07,29.63,8,1,0,0.50
2013-5-30,59,51,46,56,48,45,98,90,73,30.25,30.06,6,1,0,0.10
2013-5-31,69,55,43,55,48,42,98,81,51,30.31,30.20,4,0,0,0.01